Terminal Aerodrome Forecast
Issued by NWS

Current Version | Previous Version | Text Only | Print | Product List | Glossary Off
Versions: 1 2 3 4 5 6 7 8 9 10 11 12 13 14 15 16 17 18 19 20 21 22 23 24 25

795
FTUS41 KRLX 120843 AAA
TAFCKB
TAF AMD
KCKB 120843Z 1209/1306 26011G19KT P6SM BKN060
     FM121100 24011G22KT P6SM OVC040
     FM121300 27012G24KT 4SM -SHSN OVC015
     FM121800 28013G26KT P6SM -SHSN BKN020=

USA.gov is the U.S. government's official web portal to all federal, state and local government web resources and services.